BEL7FP EBBR-LEBL
Flight info
| Callsign | BEL7FP |
|---|---|
| Flight time | 1h 41m |
| Altitude | 37000 |
| Route | CIV4V CIV N872 LESDO DCT KOVIN DCT DUCRA UM728 RESMI UN857 DISAK DCT DIRMO DCT VALKU DCT ATSUP DCT MINSO DCT DEGOL DCT PPG DCT ALBER ALBER2E |
| Aircraft | A320/M-SDE3FGHIRWY/LB1 |
Departure
| Time | 2026-05-07 13:47 |
|---|---|
| Airport | Brussels Airport (EBBR) |
Arrival
| Time | 2026-05-07 15:29 |
|---|---|
| Airport | Josep Tarradellas Barcelona-El Prat Airport (LEBL) |
| Time | Latitude | Longitude | Altitude | Speed | Heading |
|---|---|---|---|---|---|
| 2026-05-07 13:11 | 50.90292 | 4.48636 | 129 ft | 0 kts | 338° |
| 2026-05-07 13:35 | 50.90289 | 4.48638 | 124 ft | 2 kts | 338° |
| 2026-05-07 13:35 | 50.90272 | 4.48651 | 127 ft | 3 kts | 330° |
| 2026-05-07 13:35 | 50.90255 | 4.48668 | 128 ft | 3 kts | 323° |
| 2026-05-07 13:36 | 50.90239 | 4.48686 | 133 ft | 3 kts | 329° |
| 2026-05-07 13:36 | 50.90224 | 4.48698 | 134 ft | 3 kts | 26° |
| 2026-05-07 13:36 | 50.90221 | 4.48697 | 134 ft | 0 kts | 65° |
| 2026-05-07 13:39 | 50.90224 | 4.48708 | 134 ft | 4 kts | 65° |
| 2026-05-07 13:39 | 50.90248 | 4.48791 | 135 ft | 13 kts | 65° |
| 2026-05-07 13:40 | 50.90287 | 4.48928 | 135 ft | 15 kts | 63° |
| 2026-05-07 13:40 | 50.90333 | 4.49083 | 136 ft | 16 kts | 65° |
| 2026-05-07 13:40 | 50.90384 | 4.49265 | 134 ft | 19 kts | 67° |
| 2026-05-07 13:40 | 50.90443 | 4.49464 | 130 ft | 19 kts | 66° |
| 2026-05-07 13:41 | 50.90425 | 4.49575 | 134 ft | 9 kts | 168° |
| 2026-05-07 13:41 | 50.90368 | 4.49556 | 136 ft | 10 kts | 194° |
| 2026-05-07 13:41 | 50.90280 | 4.49520 | 140 ft | 16 kts | 194° |
| 2026-05-07 13:41 | 50.90153 | 4.49468 | 144 ft | 22 kts | 194° |
| 2026-05-07 13:42 | 50.90011 | 4.49412 | 153 ft | 20 kts | 194° |
| 2026-05-07 13:42 | 50.89880 | 4.49355 | 157 ft | 20 kts | 194° |
| 2026-05-07 13:42 | 50.89747 | 4.49303 | 161 ft | 20 kts | 194° |
| 2026-05-07 13:42 | 50.89617 | 4.49242 | 163 ft | 18 kts | 215° |
| 2026-05-07 13:43 | 50.89502 | 4.49163 | 164 ft | 19 kts | 194° |
| 2026-05-07 13:43 | 50.89364 | 4.49104 | 164 ft | 21 kts | 201° |
| 2026-05-07 13:43 | 50.89298 | 4.48907 | 166 ft | 21 kts | 250° |
| 2026-05-07 13:43 | 50.89243 | 4.48671 | 171 ft | 23 kts | 250° |
| 2026-05-07 13:44 | 50.89185 | 4.48421 | 172 ft | 25 kts | 250° |
| 2026-05-07 13:44 | 50.89126 | 4.48158 | 174 ft | 26 kts | 249° |
| 2026-05-07 13:44 | 50.89071 | 4.47938 | 175 ft | 18 kts | 242° |
| 2026-05-07 13:44 | 50.88959 | 4.47935 | 173 ft | 20 kts | 148° |
| 2026-05-07 13:45 | 50.88930 | 4.48127 | 172 ft | 19 kts | 89° |
| 2026-05-07 13:45 | 50.88948 | 4.48237 | 172 ft | 0 kts | 70° |
| 2026-05-07 13:46 | 50.88957 | 4.48279 | 172 ft | 20 kts | 70° |
| 2026-05-07 13:46 | 50.89093 | 4.48865 | 172 ft | 91 kts | 70° |
| 2026-05-07 13:47 | 50.89380 | 4.50098 | 173 ft | 146 kts | 70° |
| 2026-05-07 13:47 | 50.89772 | 4.51809 | 368 ft | 174 kts | 70° |
| 2026-05-07 13:47 | 50.90223 | 4.53584 | 1161 ft | 172 kts | 63° |
| 2026-05-07 13:47 | 50.90765 | 4.55257 | 1956 ft | 169 kts | 62° |
| 2026-05-07 13:48 | 50.91319 | 4.56868 | 2711 ft | 165 kts | 61° |
| 2026-05-07 13:48 | 50.91874 | 4.58433 | 3396 ft | 160 kts | 60° |
| 2026-05-07 13:48 | 50.92410 | 4.59948 | 3985 ft | 159 kts | 61° |
| 2026-05-07 13:48 | 50.92928 | 4.61488 | 4532 ft | 158 kts | 63° |
| 2026-05-07 13:49 | 50.93401 | 4.63089 | 5056 ft | 159 kts | 64° |
| 2026-05-07 13:49 | 50.93839 | 4.64803 | 5294 ft | 181 kts | 73° |
| 2026-05-07 13:49 | 50.94222 | 4.66829 | 5517 ft | 203 kts | 72° |
| 2026-05-07 13:49 | 50.94660 | 4.69094 | 5775 ft | 225 kts | 72° |
| 2026-05-07 13:50 | 50.95144 | 4.71569 | 6109 ft | 245 kts | 72° |
| 2026-05-07 13:50 | 50.95479 | 4.74255 | 6727 ft | 252 kts | 90° |
| 2026-05-07 13:50 | 50.95166 | 4.76993 | 7421 ft | 256 kts | 113° |
| 2026-05-07 13:50 | 50.94212 | 4.79364 | 8138 ft | 258 kts | 136° |
| 2026-05-07 13:51 | 50.92722 | 4.81022 | 8635 ft | 271 kts | 158° |
| 2026-05-07 13:51 | 50.90905 | 4.82009 | 9292 ft | 280 kts | 170° |
| 2026-05-07 13:51 | 50.88953 | 4.82111 | 10066 ft | 284 kts | 189° |
| 2026-05-07 13:51 | 50.87020 | 4.81127 | 10403 ft | 305 kts | 210° |
| 2026-05-07 13:52 | 50.85359 | 4.78879 | 10624 ft | 327 kts | 233° |
| 2026-05-07 13:52 | 50.84271 | 4.75627 | 10977 ft | 343 kts | 246° |
| 2026-05-07 13:52 | 50.83301 | 4.72134 | 11630 ft | 349 kts | 246° |
| 2026-05-07 13:52 | 50.82310 | 4.68616 | 12366 ft | 353 kts | 246° |
| 2026-05-07 13:53 | 50.81309 | 4.65104 | 13073 ft | 356 kts | 246° |
| 2026-05-07 13:53 | 50.80277 | 4.61516 | 13797 ft | 360 kts | 245° |
| 2026-05-07 13:53 | 50.79231 | 4.57900 | 14436 ft | 363 kts | 245° |
| 2026-05-07 13:53 | 50.78174 | 4.54248 | 15075 ft | 366 kts | 245° |
| 2026-05-07 13:54 | 50.77113 | 4.50581 | 15710 ft | 369 kts | 245° |
| 2026-05-07 13:54 | 50.76042 | 4.46881 | 16333 ft | 372 kts | 245° |
| 2026-05-07 13:54 | 50.74962 | 4.43160 | 16961 ft | 374 kts | 245° |
| 2026-05-07 13:54 | 50.73874 | 4.39409 | 17591 ft | 377 kts | 245° |
| 2026-05-07 13:55 | 50.72775 | 4.35624 | 18213 ft | 380 kts | 245° |
| 2026-05-07 13:55 | 50.71666 | 4.31812 | 18768 ft | 384 kts | 245° |
| 2026-05-07 13:55 | 50.70549 | 4.27980 | 19314 ft | 386 kts | 245° |
| 2026-05-07 13:55 | 50.69419 | 4.24111 | 19859 ft | 389 kts | 245° |
| 2026-05-07 13:56 | 50.68284 | 4.20226 | 20398 ft | 392 kts | 245° |
| 2026-05-07 13:56 | 50.67138 | 4.16307 | 20926 ft | 394 kts | 245° |
| 2026-05-07 13:56 | 50.65984 | 4.12370 | 21437 ft | 397 kts | 245° |
| 2026-05-07 13:56 | 50.64817 | 4.08402 | 21924 ft | 400 kts | 245° |
| 2026-05-07 13:57 | 50.63645 | 4.04410 | 22417 ft | 403 kts | 245° |
| 2026-05-07 13:57 | 50.62463 | 4.00398 | 22885 ft | 406 kts | 245° |
| 2026-05-07 13:57 | 50.61266 | 3.96359 | 23341 ft | 408 kts | 245° |
| 2026-05-07 13:57 | 50.60077 | 3.92352 | 23769 ft | 411 kts | 245° |
| 2026-05-07 13:58 | 50.58689 | 3.88407 | 24129 ft | 413 kts | 236° |
| 2026-05-07 13:58 | 50.56874 | 3.84896 | 24499 ft | 416 kts | 226° |
| 2026-05-07 13:58 | 50.54664 | 3.81947 | 24861 ft | 419 kts | 215° |
| 2026-05-07 13:58 | 50.52126 | 3.79669 | 25218 ft | 422 kts | 205° |
| 2026-05-07 13:59 | 50.49426 | 3.77841 | 25559 ft | 424 kts | 204° |
| 2026-05-07 13:59 | 50.46709 | 3.76004 | 25909 ft | 426 kts | 204° |
| 2026-05-07 13:59 | 50.43983 | 3.74154 | 26246 ft | 428 kts | 205° |
| 2026-05-07 13:59 | 50.41247 | 3.72292 | 26579 ft | 430 kts | 205° |
| 2026-05-07 14:00 | 50.38499 | 3.70417 | 26912 ft | 431 kts | 205° |
| 2026-05-07 14:00 | 50.35741 | 3.68537 | 27228 ft | 433 kts | 205° |
| 2026-05-07 14:00 | 50.32971 | 3.66658 | 27536 ft | 435 kts | 205° |
| 2026-05-07 14:00 | 50.30188 | 3.64775 | 27840 ft | 437 kts | 205° |
| 2026-05-07 14:01 | 50.27394 | 3.62888 | 28131 ft | 439 kts | 205° |
| 2026-05-07 14:01 | 50.24586 | 3.60994 | 28422 ft | 440 kts | 205° |
| 2026-05-07 14:01 | 50.21774 | 3.59099 | 28684 ft | 442 kts | 205° |
| 2026-05-07 14:01 | 50.18940 | 3.57192 | 28949 ft | 443 kts | 205° |
| 2026-05-07 14:02 | 50.16100 | 3.55283 | 29203 ft | 445 kts | 205° |
| 2026-05-07 14:02 | 50.13292 | 3.53399 | 29436 ft | 446 kts | 205° |
| 2026-05-07 14:02 | 50.10434 | 3.51486 | 29666 ft | 448 kts | 205° |
| 2026-05-07 14:02 | 50.07573 | 3.49574 | 29977 ft | 447 kts | 205° |
| 2026-05-07 14:03 | 50.04721 | 3.47672 | 30280 ft | 446 kts | 205° |
| 2026-05-07 14:03 | 50.01871 | 3.45773 | 30546 ft | 445 kts | 205° |
| 2026-05-07 14:03 | 49.99024 | 3.43875 | 30807 ft | 444 kts | 205° |
| 2026-05-07 14:03 | 49.96180 | 3.41981 | 31070 ft | 444 kts | 205° |
| 2026-05-07 14:04 | 49.93348 | 3.40098 | 31333 ft | 443 kts | 205° |
| 2026-05-07 14:04 | 49.90516 | 3.38218 | 31599 ft | 443 kts | 205° |
| 2026-05-07 14:04 | 49.87681 | 3.36340 | 31873 ft | 442 kts | 205° |
| 2026-05-07 14:04 | 49.84854 | 3.34473 | 32148 ft | 441 kts | 205° |
| 2026-05-07 14:05 | 49.82036 | 3.32613 | 32421 ft | 440 kts | 205° |
| 2026-05-07 14:05 | 49.79220 | 3.30755 | 32694 ft | 440 kts | 205° |
| 2026-05-07 14:05 | 49.76408 | 3.28900 | 32968 ft | 439 kts | 205° |
| 2026-05-07 14:05 | 49.73602 | 3.27050 | 33239 ft | 438 kts | 205° |
| 2026-05-07 14:06 | 49.70800 | 3.25201 | 33514 ft | 438 kts | 205° |
| 2026-05-07 14:06 | 49.68005 | 3.23358 | 33782 ft | 437 kts | 205° |
| 2026-05-07 14:06 | 49.65208 | 3.21519 | 34043 ft | 436 kts | 205° |
| 2026-05-07 14:06 | 49.62412 | 3.19685 | 34265 ft | 436 kts | 205° |
| 2026-05-07 14:07 | 49.59623 | 3.17862 | 34480 ft | 436 kts | 205° |
| 2026-05-07 14:07 | 49.56832 | 3.16041 | 34684 ft | 436 kts | 205° |
| 2026-05-07 14:07 | 49.54037 | 3.14219 | 34886 ft | 436 kts | 205° |
| 2026-05-07 14:07 | 49.51246 | 3.12397 | 35083 ft | 436 kts | 205° |
| 2026-05-07 14:08 | 49.48493 | 3.10440 | 35262 ft | 435 kts | 211° |
| 2026-05-07 14:08 | 49.45942 | 3.07969 | 35448 ft | 434 kts | 215° |
| 2026-05-07 14:08 | 49.43435 | 3.05398 | 35616 ft | 434 kts | 215° |
| 2026-05-07 14:08 | 49.40949 | 3.02861 | 35786 ft | 434 kts | 215° |
| 2026-05-07 14:09 | 49.38435 | 3.00306 | 35960 ft | 434 kts | 215° |
| 2026-05-07 14:09 | 49.35916 | 2.97756 | 36120 ft | 434 kts | 215° |
| 2026-05-07 14:09 | 49.33391 | 2.95209 | 36288 ft | 434 kts | 215° |
| 2026-05-07 14:09 | 49.30869 | 2.92668 | 36443 ft | 434 kts | 214° |
| 2026-05-07 14:10 | 49.28342 | 2.90122 | 36603 ft | 434 kts | 214° |
| 2026-05-07 14:10 | 49.25816 | 2.87575 | 36744 ft | 434 kts | 215° |
| 2026-05-07 14:10 | 49.23292 | 2.85031 | 36898 ft | 434 kts | 214° |
| 2026-05-07 14:10 | 49.20771 | 2.82490 | 37033 ft | 435 kts | 214° |
| 2026-05-07 14:11 | 49.18241 | 2.79940 | 37059 ft | 436 kts | 214° |
| 2026-05-07 14:11 | 49.13177 | 2.74849 | 37053 ft | 436 kts | 214° |
| 2026-05-07 14:12 | 49.08109 | 2.69776 | 37056 ft | 436 kts | 214° |
| 2026-05-07 14:12 | 49.03034 | 2.64722 | 37056 ft | 436 kts | 214° |
| 2026-05-07 14:13 | 48.97987 | 2.59711 | 37056 ft | 436 kts | 214° |
| 2026-05-07 14:13 | 48.92912 | 2.54672 | 37056 ft | 436 kts | 214° |
| 2026-05-07 14:14 | 48.88202 | 2.49990 | 37055 ft | 436 kts | 214° |
| 2026-05-07 14:14 | 48.83127 | 2.44955 | 37055 ft | 436 kts | 214° |
| 2026-05-07 14:15 | 48.78045 | 2.39947 | 37058 ft | 435 kts | 214° |
| 2026-05-07 14:15 | 48.72959 | 2.34957 | 37059 ft | 435 kts | 214° |
| 2026-05-07 14:16 | 48.68730 | 2.30810 | 37058 ft | 435 kts | 214° |
| 2026-05-07 14:16 | 48.62817 | 2.25030 | 37054 ft | 435 kts | 214° |
| 2026-05-07 14:17 | 48.57654 | 2.20251 | 37050 ft | 437 kts | 206° |
| 2026-05-07 14:17 | 48.51845 | 2.17563 | 37046 ft | 439 kts | 194° |
| 2026-05-07 14:18 | 48.46869 | 2.15971 | 37040 ft | 440 kts | 194° |
| 2026-05-07 14:18 | 48.40885 | 2.14047 | 37035 ft | 440 kts | 194° |
| 2026-05-07 14:19 | 48.34890 | 2.12123 | 37032 ft | 440 kts | 194° |
| 2026-05-07 14:19 | 48.28866 | 2.10498 | 37034 ft | 442 kts | 185° |
| 2026-05-07 14:20 | 48.22714 | 2.11178 | 37032 ft | 446 kts | 174° |
| 2026-05-07 14:20 | 48.16568 | 2.12489 | 37033 ft | 446 kts | 174° |
| 2026-05-07 14:21 | 48.10409 | 2.13357 | 37039 ft | 444 kts | 180° |
| 2026-05-07 14:21 | 48.04240 | 2.13715 | 37043 ft | 444 kts | 180° |
| 2026-05-07 14:22 | 47.97062 | 2.14130 | 37049 ft | 444 kts | 180° |
| 2026-05-07 14:22 | 47.91931 | 2.14430 | 37050 ft | 444 kts | 180° |
| 2026-05-07 14:23 | 47.85758 | 2.14798 | 37054 ft | 444 kts | 180° |
| 2026-05-07 14:23 | 47.79568 | 2.15159 | 37052 ft | 444 kts | 180° |
| 2026-05-07 14:24 | 47.73392 | 2.15524 | 37048 ft | 444 kts | 180° |
| 2026-05-07 14:24 | 47.67223 | 2.15886 | 37044 ft | 444 kts | 180° |
| 2026-05-07 14:25 | 47.61052 | 2.16237 | 37031 ft | 444 kts | 180° |
| 2026-05-07 14:25 | 47.54883 | 2.16598 | 37033 ft | 443 kts | 180° |
| 2026-05-07 14:26 | 47.48710 | 2.16957 | 37030 ft | 443 kts | 181° |
| 2026-05-07 14:26 | 47.42586 | 2.17301 | 37032 ft | 443 kts | 181° |
| 2026-05-07 14:27 | 47.36423 | 2.17655 | 37027 ft | 443 kts | 181° |
| 2026-05-07 14:27 | 47.30256 | 2.18013 | 37026 ft | 443 kts | 181° |
| 2026-05-07 14:28 | 47.24104 | 2.18370 | 37025 ft | 443 kts | 181° |
| 2026-05-07 14:28 | 47.17932 | 2.18720 | 37025 ft | 442 kts | 181° |
| 2026-05-07 14:29 | 47.11782 | 2.19084 | 37020 ft | 443 kts | 179° |
| 2026-05-07 14:29 | 47.05747 | 2.21082 | 37019 ft | 450 kts | 161° |
| 2026-05-07 14:30 | 46.99932 | 2.24504 | 37012 ft | 450 kts | 161° |
| 2026-05-07 14:30 | 46.94109 | 2.27896 | 37012 ft | 450 kts | 162° |
| 2026-05-07 14:31 | 46.88323 | 2.31256 | 37009 ft | 450 kts | 162° |
| 2026-05-07 14:31 | 46.82495 | 2.34645 | 37007 ft | 451 kts | 162° |
| 2026-05-07 14:32 | 46.76662 | 2.38018 | 37006 ft | 451 kts | 162° |
| 2026-05-07 14:32 | 46.70831 | 2.41386 | 37006 ft | 451 kts | 162° |
| 2026-05-07 14:33 | 46.64992 | 2.44758 | 37008 ft | 451 kts | 162° |
| 2026-05-07 14:33 | 46.59157 | 2.48116 | 37008 ft | 451 kts | 162° |
| 2026-05-07 14:34 | 46.53361 | 2.51432 | 37013 ft | 450 kts | 162° |
| 2026-05-07 14:34 | 46.47525 | 2.54768 | 37016 ft | 450 kts | 162° |
| 2026-05-07 14:35 | 46.41697 | 2.58098 | 37016 ft | 450 kts | 162° |
| 2026-05-07 14:35 | 46.35865 | 2.61426 | 37017 ft | 450 kts | 162° |
| 2026-05-07 14:36 | 46.30035 | 2.64745 | 37019 ft | 450 kts | 162° |
| 2026-05-07 14:36 | 46.24207 | 2.68051 | 37018 ft | 450 kts | 162° |
| 2026-05-07 14:37 | 46.18381 | 2.71357 | 37017 ft | 450 kts | 162° |
| 2026-05-07 14:37 | 46.09639 | 2.76294 | 37018 ft | 449 kts | 162° |
| 2026-05-07 14:38 | 46.03816 | 2.79571 | 37016 ft | 449 kts | 162° |
| 2026-05-07 14:38 | 45.97991 | 2.82828 | 37013 ft | 449 kts | 163° |
| 2026-05-07 14:39 | 45.92141 | 2.85941 | 37014 ft | 448 kts | 164° |
| 2026-05-07 14:39 | 45.86307 | 2.88962 | 37012 ft | 448 kts | 164° |
| 2026-05-07 14:40 | 45.80451 | 2.92017 | 37008 ft | 448 kts | 163° |
| 2026-05-07 14:40 | 45.74544 | 2.94721 | 37007 ft | 442 kts | 174° |
| 2026-05-07 14:41 | 45.68473 | 2.95141 | 37006 ft | 435 kts | 185° |
| 2026-05-07 14:41 | 45.62412 | 2.94963 | 37008 ft | 435 kts | 185° |
| 2026-05-07 14:42 | 45.56361 | 2.94792 | 37005 ft | 435 kts | 184° |
| 2026-05-07 14:42 | 45.50309 | 2.94643 | 37008 ft | 435 kts | 184° |
| 2026-05-07 14:43 | 45.44257 | 2.94494 | 37008 ft | 435 kts | 184° |
| 2026-05-07 14:43 | 45.38243 | 2.94332 | 37005 ft | 434 kts | 184° |
| 2026-05-07 14:44 | 45.32203 | 2.94166 | 37006 ft | 434 kts | 184° |
| 2026-05-07 14:44 | 45.26164 | 2.94002 | 37005 ft | 434 kts | 184° |
| 2026-05-07 14:45 | 45.20129 | 2.93841 | 37006 ft | 433 kts | 184° |
| 2026-05-07 14:45 | 45.14103 | 2.93677 | 37001 ft | 433 kts | 184° |
| 2026-05-07 14:46 | 45.08116 | 2.93527 | 37001 ft | 433 kts | 184° |
| 2026-05-07 14:46 | 45.02101 | 2.93371 | 37000 ft | 433 kts | 184° |
| 2026-05-07 14:47 | 44.96084 | 2.93214 | 37000 ft | 432 kts | 184° |
| 2026-05-07 14:47 | 44.90068 | 2.93060 | 37000 ft | 432 kts | 184° |
| 2026-05-07 14:48 | 44.84058 | 2.92912 | 36996 ft | 432 kts | 185° |
| 2026-05-07 14:48 | 44.78064 | 2.92555 | 36994 ft | 430 kts | 186° |
| 2026-05-07 14:49 | 44.72091 | 2.92043 | 36990 ft | 430 kts | 186° |
| 2026-05-07 14:49 | 44.66150 | 2.91560 | 36991 ft | 430 kts | 186° |
| 2026-05-07 14:50 | 44.60183 | 2.91122 | 37005 ft | 430 kts | 186° |
| 2026-05-07 14:50 | 44.54217 | 2.90697 | 36988 ft | 429 kts | 186° |
| 2026-05-07 14:51 | 44.48249 | 2.90262 | 36989 ft | 429 kts | 186° |
| 2026-05-07 14:51 | 44.42297 | 2.89822 | 36991 ft | 428 kts | 186° |
| 2026-05-07 14:52 | 44.36343 | 2.89396 | 36993 ft | 428 kts | 186° |
| 2026-05-07 14:52 | 44.30394 | 2.88974 | 36995 ft | 428 kts | 186° |
| 2026-05-07 14:53 | 44.24453 | 2.88544 | 36986 ft | 428 kts | 186° |
| 2026-05-07 14:53 | 44.18510 | 2.88119 | 36984 ft | 427 kts | 186° |
| 2026-05-07 14:54 | 44.12609 | 2.87694 | 36984 ft | 427 kts | 186° |
| 2026-05-07 14:54 | 44.06672 | 2.87265 | 36979 ft | 427 kts | 186° |
| 2026-05-07 14:55 | 44.00737 | 2.86841 | 36981 ft | 427 kts | 186° |
| 2026-05-07 14:55 | 43.94811 | 2.86430 | 36978 ft | 426 kts | 186° |
| 2026-05-07 14:56 | 43.88890 | 2.86011 | 36979 ft | 426 kts | 186° |
| 2026-05-07 14:56 | 43.82966 | 2.85584 | 36977 ft | 426 kts | 186° |
| 2026-05-07 14:57 | 43.77088 | 2.85182 | 36974 ft | 426 kts | 185° |
| 2026-05-07 14:57 | 43.71158 | 2.85143 | 36982 ft | 427 kts | 182° |
| 2026-05-07 14:58 | 43.65211 | 2.85337 | 36986 ft | 427 kts | 182° |
| 2026-05-07 14:58 | 43.59282 | 2.85511 | 36983 ft | 426 kts | 183° |
| 2026-05-07 14:59 | 43.53359 | 2.85620 | 36984 ft | 425 kts | 184° |
| 2026-05-07 14:59 | 43.47441 | 2.85690 | 36986 ft | 425 kts | 184° |
| 2026-05-07 15:00 | 43.41538 | 2.85760 | 36989 ft | 424 kts | 184° |
| 2026-05-07 15:00 | 43.35641 | 2.85846 | 36986 ft | 424 kts | 184° |
| 2026-05-07 15:01 | 43.29753 | 2.85944 | 36984 ft | 423 kts | 184° |
| 2026-05-07 15:01 | 43.23912 | 2.86027 | 36983 ft | 422 kts | 184° |
| 2026-05-07 15:02 | 43.18042 | 2.86111 | 36987 ft | 422 kts | 184° |
| 2026-05-07 15:02 | 43.12180 | 2.86196 | 36995 ft | 421 kts | 184° |
| 2026-05-07 15:03 | 43.06322 | 2.86277 | 36993 ft | 421 kts | 184° |
| 2026-05-07 15:03 | 43.00472 | 2.86362 | 36991 ft | 420 kts | 184° |
| 2026-05-07 15:04 | 42.94631 | 2.86446 | 36989 ft | 419 kts | 184° |
| 2026-05-07 15:04 | 42.91711 | 2.86489 | 36867 ft | 420 kts | 184° |
| 2026-05-07 15:04 | 42.88786 | 2.86531 | 36333 ft | 418 kts | 184° |
| 2026-05-07 15:05 | 42.85881 | 2.86574 | 35816 ft | 416 kts | 185° |
| 2026-05-07 15:05 | 42.82998 | 2.86615 | 35318 ft | 414 kts | 185° |
| 2026-05-07 15:05 | 42.80148 | 2.86656 | 34849 ft | 412 kts | 185° |
| 2026-05-07 15:05 | 42.77286 | 2.86698 | 34392 ft | 410 kts | 185° |
| 2026-05-07 15:06 | 42.74446 | 2.86661 | 33932 ft | 405 kts | 190° |
| 2026-05-07 15:06 | 42.71645 | 2.86326 | 33417 ft | 404 kts | 191° |
| 2026-05-07 15:06 | 42.68843 | 2.85989 | 32901 ft | 405 kts | 191° |
| 2026-05-07 15:06 | 42.66034 | 2.85657 | 32392 ft | 407 kts | 190° |
| 2026-05-07 15:07 | 42.63205 | 2.85324 | 31907 ft | 409 kts | 190° |
| 2026-05-07 15:07 | 42.60362 | 2.84988 | 31428 ft | 412 kts | 190° |
| 2026-05-07 15:07 | 42.57496 | 2.84652 | 30941 ft | 415 kts | 190° |
| 2026-05-07 15:07 | 42.54610 | 2.84315 | 30482 ft | 418 kts | 190° |
| 2026-05-07 15:08 | 42.51731 | 2.83981 | 30008 ft | 414 kts | 190° |
| 2026-05-07 15:08 | 42.48887 | 2.83655 | 29469 ft | 405 kts | 189° |
| 2026-05-07 15:08 | 42.46103 | 2.83337 | 28934 ft | 398 kts | 190° |
| 2026-05-07 15:08 | 42.43390 | 2.82796 | 28406 ft | 391 kts | 195° |
| 2026-05-07 15:09 | 42.40731 | 2.82137 | 27895 ft | 387 kts | 194° |
| 2026-05-07 15:09 | 42.38084 | 2.81483 | 27392 ft | 385 kts | 194° |
| 2026-05-07 15:09 | 42.35452 | 2.80832 | 26895 ft | 384 kts | 194° |
| 2026-05-07 15:09 | 42.32863 | 2.80194 | 26414 ft | 383 kts | 194° |
| 2026-05-07 15:10 | 42.30248 | 2.79551 | 25938 ft | 381 kts | 193° |
| 2026-05-07 15:10 | 42.27641 | 2.78911 | 25462 ft | 380 kts | 193° |
| 2026-05-07 15:10 | 42.25047 | 2.78275 | 25003 ft | 379 kts | 193° |
| 2026-05-07 15:10 | 42.22461 | 2.77642 | 24531 ft | 378 kts | 193° |
| 2026-05-07 15:11 | 42.19877 | 2.77011 | 24098 ft | 377 kts | 192° |
| 2026-05-07 15:11 | 42.17299 | 2.76381 | 23655 ft | 376 kts | 192° |
| 2026-05-07 15:11 | 42.14795 | 2.75480 | 23141 ft | 371 kts | 204° |
| 2026-05-07 15:11 | 42.12548 | 2.73825 | 22629 ft | 367 kts | 217° |
| 2026-05-07 15:12 | 42.11254 | 2.72349 | 22287 ft | 365 kts | 225° |
| 2026-05-07 15:12 | 42.09013 | 2.68961 | 21618 ft | 363 kts | 229° |
| 2026-05-07 15:12 | 42.07349 | 2.66412 | 21128 ft | 361 kts | 229° |
| 2026-05-07 15:12 | 42.05693 | 2.63887 | 20643 ft | 359 kts | 228° |
| 2026-05-07 15:13 | 42.04595 | 2.62221 | 20324 ft | 358 kts | 228° |
| 2026-05-07 15:13 | 42.02945 | 2.59724 | 19854 ft | 356 kts | 228° |
| 2026-05-07 15:13 | 42.01306 | 2.57240 | 19393 ft | 354 kts | 228° |
| 2026-05-07 15:13 | 41.99674 | 2.54765 | 18933 ft | 353 kts | 228° |
| 2026-05-07 15:14 | 41.98049 | 2.52301 | 18473 ft | 351 kts | 228° |
| 2026-05-07 15:14 | 41.96433 | 2.49856 | 18001 ft | 349 kts | 228° |
| 2026-05-07 15:14 | 41.94822 | 2.47421 | 17494 ft | 348 kts | 228° |
| 2026-05-07 15:14 | 41.93218 | 2.44995 | 16989 ft | 346 kts | 228° |
| 2026-05-07 15:15 | 41.91623 | 2.42586 | 16491 ft | 344 kts | 228° |
| 2026-05-07 15:15 | 41.90036 | 2.40187 | 16002 ft | 343 kts | 228° |
| 2026-05-07 15:15 | 41.88457 | 2.37800 | 15528 ft | 341 kts | 228° |
| 2026-05-07 15:15 | 41.86882 | 2.35424 | 15054 ft | 340 kts | 228° |
| 2026-05-07 15:16 | 41.85313 | 2.33060 | 14591 ft | 339 kts | 228° |
| 2026-05-07 15:16 | 41.83747 | 2.30706 | 14135 ft | 337 kts | 228° |
| 2026-05-07 15:16 | 41.82203 | 2.28393 | 13677 ft | 336 kts | 228° |
| 2026-05-07 15:16 | 41.80634 | 2.26043 | 13167 ft | 335 kts | 228° |
| 2026-05-07 15:17 | 41.79076 | 2.23708 | 12665 ft | 334 kts | 228° |
| 2026-05-07 15:17 | 41.77413 | 2.21557 | 12174 ft | 333 kts | 217° |
| 2026-05-07 15:17 | 41.75426 | 2.19979 | 11684 ft | 332 kts | 204° |
| 2026-05-07 15:17 | 41.73239 | 2.19023 | 11210 ft | 330 kts | 196° |
| 2026-05-07 15:18 | 41.71062 | 2.18208 | 10735 ft | 328 kts | 196° |
| 2026-05-07 15:18 | 41.68840 | 2.17370 | 10278 ft | 327 kts | 196° |
| 2026-05-07 15:18 | 41.66688 | 2.16551 | 9823 ft | 325 kts | 196° |
| 2026-05-07 15:18 | 41.64519 | 2.15724 | 9321 ft | 323 kts | 196° |
| 2026-05-07 15:19 | 41.62358 | 2.14902 | 8826 ft | 321 kts | 195° |
| 2026-05-07 15:19 | 41.60214 | 2.14092 | 8337 ft | 319 kts | 195° |
| 2026-05-07 15:19 | 41.58082 | 2.13288 | 7854 ft | 317 kts | 195° |
| 2026-05-07 15:19 | 41.55953 | 2.12494 | 7378 ft | 316 kts | 195° |
| 2026-05-07 15:20 | 41.53844 | 2.11703 | 6911 ft | 313 kts | 195° |
| 2026-05-07 15:20 | 41.51773 | 2.10919 | 6456 ft | 312 kts | 195° |
| 2026-05-07 15:20 | 41.49691 | 2.10125 | 6063 ft | 307 kts | 195° |
| 2026-05-07 15:20 | 41.47677 | 2.09353 | 5994 ft | 290 kts | 195° |
| 2026-05-07 15:21 | 41.45813 | 2.08636 | 6003 ft | 278 kts | 195° |
| 2026-05-07 15:21 | 41.43995 | 2.07781 | 6009 ft | 277 kts | 209° |
| 2026-05-07 15:21 | 41.42586 | 2.06054 | 6008 ft | 278 kts | 236° |
| 2026-05-07 15:21 | 41.41610 | 2.03819 | 6006 ft | 279 kts | 242° |
| 2026-05-07 15:22 | 41.40705 | 2.01534 | 6009 ft | 279 kts | 242° |
| 2026-05-07 15:22 | 41.39807 | 1.99240 | 5710 ft | 279 kts | 242° |
| 2026-05-07 15:22 | 41.38921 | 1.96959 | 5332 ft | 276 kts | 242° |
| 2026-05-07 15:22 | 41.38047 | 1.94698 | 4952 ft | 274 kts | 242° |
| 2026-05-07 15:23 | 41.37187 | 1.92457 | 4578 ft | 271 kts | 242° |
| 2026-05-07 15:23 | 41.36298 | 1.90263 | 4192 ft | 267 kts | 234° |
| 2026-05-07 15:23 | 41.35148 | 1.88348 | 3813 ft | 263 kts | 227° |
| 2026-05-07 15:23 | 41.33953 | 1.86552 | 3435 ft | 261 kts | 224° |
| 2026-05-07 15:24 | 41.32494 | 1.85132 | 3077 ft | 254 kts | 202° |
| 2026-05-07 15:24 | 41.30848 | 1.84753 | 2993 ft | 231 kts | 173° |
| 2026-05-07 15:24 | 41.29329 | 1.85183 | 3007 ft | 223 kts | 160° |
| 2026-05-07 15:24 | 41.27925 | 1.85893 | 3006 ft | 211 kts | 152° |
| 2026-05-07 15:25 | 41.26801 | 1.87067 | 2857 ft | 206 kts | 126° |
| 2026-05-07 15:25 | 41.26232 | 1.88793 | 2605 ft | 206 kts | 103° |
| 2026-05-07 15:25 | 41.25923 | 1.90654 | 2354 ft | 206 kts | 103° |
| 2026-05-07 15:25 | 41.25621 | 1.92498 | 2145 ft | 203 kts | 102° |
| 2026-05-07 15:26 | 41.25422 | 1.94263 | 2099 ft | 186 kts | 88° |
| 2026-05-07 15:26 | 41.25688 | 1.95930 | 1951 ft | 185 kts | 68° |
| 2026-05-07 15:26 | 41.26212 | 1.97446 | 1723 ft | 177 kts | 69° |
| 2026-05-07 15:26 | 41.26702 | 1.98881 | 1445 ft | 165 kts | 68° |
| 2026-05-07 15:27 | 41.27152 | 2.00204 | 1226 ft | 149 kts | 69° |
| 2026-05-07 15:27 | 41.27560 | 2.01410 | 1019 ft | 138 kts | 69° |
| 2026-05-07 15:27 | 41.27949 | 2.02564 | 826 ft | 135 kts | 69° |
| 2026-05-07 15:27 | 41.28310 | 2.03681 | 635 ft | 130 kts | 70° |
| 2026-05-07 15:28 | 41.28677 | 2.04797 | 409 ft | 131 kts | 67° |
| 2026-05-07 15:28 | 41.29043 | 2.05895 | 209 ft | 127 kts | 67° |
| 2026-05-07 15:28 | 41.29415 | 2.06960 | 75 ft | 126 kts | 68° |
| 2026-05-07 15:28 | 41.29752 | 2.08012 | 25 ft | 113 kts | 68° |
| 2026-05-07 15:29 | 41.30021 | 2.08762 | 21 ft | 67 kts | 65° |
| 2026-05-07 15:29 | 41.30129 | 2.09147 | 16 ft | 33 kts | 81° |
| 2026-05-07 15:29 | 41.30125 | 2.09386 | 15 ft | 16 kts | 109° |
| 2026-05-07 15:29 | 41.30111 | 2.09406 | 13 ft | 0 kts | 143° |
| 2026-05-07 15:30 | 41.30107 | 2.09409 | 13 ft | 4 kts | 143° |
| 2026-05-07 15:30 | 41.30054 | 2.09402 | 13 ft | 14 kts | 229° |
| 2026-05-07 15:30 | 41.30005 | 2.09265 | 15 ft | 16 kts | 245° |
| 2026-05-07 15:31 | 41.29963 | 2.09142 | 16 ft | 14 kts | 246° |
| 2026-05-07 15:31 | 41.29919 | 2.09009 | 18 ft | 18 kts | 246° |
| 2026-05-07 15:31 | 41.29866 | 2.08850 | 21 ft | 18 kts | 246° |
| 2026-05-07 15:31 | 41.29814 | 2.08699 | 20 ft | 18 kts | 244° |
| 2026-05-07 15:32 | 41.29764 | 2.08557 | 22 ft | 16 kts | 245° |
| 2026-05-07 15:32 | 41.29718 | 2.08422 | 20 ft | 16 kts | 246° |
| 2026-05-07 15:32 | 41.29672 | 2.08285 | 17 ft | 15 kts | 244° |
| 2026-05-07 15:32 | 41.29590 | 2.08244 | 16 ft | 15 kts | 156° |
| 2026-05-07 15:33 | 41.29482 | 2.08316 | 16 ft | 19 kts | 151° |
| 2026-05-07 15:33 | 41.29351 | 2.08394 | 14 ft | 22 kts | 159° |
| 2026-05-07 15:33 | 41.29206 | 2.08449 | 14 ft | 21 kts | 194° |
| 2026-05-07 15:33 | 41.29068 | 2.08384 | 17 ft | 19 kts | 209° |
| 2026-05-07 15:34 | 41.29010 | 2.08243 | 19 ft | 13 kts | 245° |
| 2026-05-07 15:34 | 41.28986 | 2.08170 | 18 ft | 5 kts | 251° |
| 2026-05-07 15:34 | 41.29002 | 2.08148 | 18 ft | 4 kts | 319° |
| 2026-05-07 15:34 | 41.29044 | 2.08119 | 18 ft | 5 kts | 334° |
| 2026-05-07 15:35 | 41.29056 | 2.08111 | 18 ft | 1 kts | 335° |
| 2026-05-07 15:35 | 41.29058 | 2.08110 | 18 ft | 0 kts | 335° |
| 2026-05-07 15:35 | 41.29060 | 2.08109 | 18 ft | 0 kts | 335° |